Rechercher aéroport 
image banner adimage banner adimage banner ad
image banner ad

SBPA - Salgado Filho

Situé à Porto Alegre, Brazil

ICAO - SBPA, IATA - POA

Données fournies par Airmate  

Information générale

Coordonnées: S29°59'38" W51°10'16"
Élévation : 13 feet MSL.
Variation magnétique : -17° East
Voir autres Aéroports à Rio Grande do Sul

Données opérationnelles

Special qualification required
Heure actuelle UTC:
Heure actuelle locale:
Météo
METAR: SBPA 180700Z 00000KT 3800 BR NSC 15/15 Q1015
TAF: TAF SBPA 180300Z 1806/1906 07004KT 4000 BR BKN010 TN15/1806Z TX21/1817Z BECMG 1808/1810 3000 BR BKN002 BECMG 1813/1815 16010KT 9999 NSW BKN012 BECMG 1816/1818 BKN030 BECMG 1904/1906 5000 BR BKN002 RMK PCQ
Voir NOTAMs / SUP AIP / TFR affectant cet aéroport [VIEW]
Fréquences de communication: [VIEW]

Pistes:

Identifiant RWYQFULongueur (ft)Largeur (ft)SurfaceLDA (ft)
1191°7480148ASP
29271°7480148
286496148UNK

Coordonnées de l'aéroport

Adresse: Porto Alegre Brazil

Autres services d'aviation

Écoles de pilotage

Aerosul

Aerosul

Vue satellite de SBPA